createdAt,value
2022-08-21T04:03:12.932Z,98962.09
2022-08-21T04:05:42.593Z,98964.34
2022-08-21T04:08:12.173Z,98960.72
2022-08-21T04:10:42.117Z,98958.09
2022-08-21T04:13:11.965Z,98956.50
2022-08-21T04:15:41.839Z,98958.34
2022-08-21T04:18:14.190Z,98963.25
2022-08-21T04:20:45.377Z,98964.19
2022-08-21T04:23:24.303Z,98965.59
2022-08-21T04:25:54.208Z,98964.97
2022-08-21T04:28:23.640Z,98973.78
2022-08-21T04:30:58.845Z,98981.19
2022-08-21T04:33:30.830Z,98981.97
2022-08-21T04:36:00.184Z,98987.09
2022-08-21T04:38:36.431Z,98990.78
2022-08-21T04:41:08.038Z,98991.16
2022-08-21T04:43:37.515Z,98996.72
2022-08-21T04:46:06.905Z,98999.38
2022-08-21T04:48:38.901Z,98996.59
2022-08-21T04:51:11.901Z,99000.75
2022-08-21T04:53:43.561Z,98999.03
2022-08-21T04:56:15.147Z,98998.53
2022-08-21T04:58:44.681Z,98999.59
2022-08-21T05:01:17.161Z,99005.19
2022-08-21T05:03:50.996Z,99008.13
2022-08-21T05:06:21.086Z,99004.00
2022-08-21T05:08:52.124Z,99002.81
2022-08-21T05:11:31.509Z,99001.22
2022-08-21T05:14:01.005Z,99011.78
2022-08-21T05:16:37.368Z,98999.06
2022-08-21T05:19:09.981Z,99008.69
2022-08-21T05:21:41.357Z,99001.34
2022-08-21T05:24:11.370Z,99003.84
2022-08-21T05:26:46.243Z,99017.25
2022-08-21T05:29:16.566Z,99006.16
2022-08-21T05:31:46.125Z,99005.31
2022-08-21T05:34:18.784Z,99010.13
2022-08-21T05:36:48.604Z,99010.25
2022-08-21T05:39:18.225Z,99012.63
2022-08-21T05:41:48.738Z,99015.28
2022-08-21T05:44:18.095Z,99010.16
2022-08-21T05:46:49.821Z,99020.53
2022-08-21T05:49:23.259Z,99012.13
2022-08-21T05:51:52.608Z,99017.97
2022-08-21T05:54:21.982Z,99011.88
2022-08-21T05:56:51.335Z,99015.69
2022-08-21T05:59:21.032Z,99008.75
2022-08-21T06:01:51.199Z,99013.13
2022-08-21T06:04:23.293Z,99015.13
2022-08-21T06:06:52.632Z,99013.19
2022-08-21T06:09:22.102Z,99013.84
2022-08-21T06:11:51.496Z,99013.22
2022-08-21T06:14:20.849Z,99004.00
2022-08-21T06:16:50.217Z,99004.84
2022-08-21T06:19:19.583Z,99002.81
2022-08-21T06:21:51.523Z,99001.00
2022-08-21T06:24:20.879Z,98993.00
2022-08-21T06:26:50.256Z,99001.31
2022-08-21T06:29:20.900Z,99000.91
2022-08-21T06:31:50.809Z,98997.31
2022-08-21T06:34:20.316Z,98998.50
2022-08-21T06:36:52.274Z,98995.81
2022-08-21T06:39:24.869Z,98996.63
2022-08-21T06:41:56.098Z,98992.94
2022-08-21T06:44:31.315Z,98992.72
2022-08-21T06:47:00.663Z,98996.06
2022-08-21T06:49:30.044Z,98988.41
2022-08-21T06:52:01.975Z,98996.06
2022-08-21T06:54:31.711Z,98994.09
2022-08-21T06:57:01.022Z,98983.16
2022-08-21T06:59:30.433Z,98989.22
2022-08-21T07:01:59.870Z,98988.84
2022-08-21T07:04:29.367Z,98990.81
2022-08-21T07:06:58.709Z,98979.56
2022-08-21T07:09:30.642Z,98982.25
2022-08-21T07:12:00.227Z,98978.56
2022-08-21T07:14:29.600Z,98982.00
2022-08-21T07:16:58.952Z,98978.34
2022-08-21T07:19:28.298Z,98992.97
2022-08-21T07:22:01.337Z,98980.66
2022-08-21T07:24:33.277Z,98991.59
2022-08-21T07:27:04.383Z,98984.53
2022-08-21T07:29:36.463Z,98982.03
2022-08-21T07:32:05.926Z,98983.75
2022-08-21T07:34:35.413Z,98982.19
2022-08-21T07:37:06.349Z,98984.00
2022-08-21T07:39:42.097Z,98980.69
2022-08-21T07:42:11.582Z,98976.59
2022-08-21T07:44:40.928Z,98976.22
2022-08-21T07:47:10.261Z,98971.13
2022-08-21T07:49:39.629Z,98976.63
2022-08-21T07:52:09.017Z,98975.19
2022-08-21T07:54:38.612Z,98969.19
2022-08-21T07:57:10.651Z,98972.66
2022-08-21T07:59:39.991Z,98965.34
2022-08-21T08:02:09.320Z,98966.25
2022-08-21T08:04:38.720Z,98968.22
2022-08-21T08:07:20.358Z,98962.34
2022-08-21T08:09:49.763Z,98963.56
2022-08-21T08:12:21.951Z,98960.47
2022-08-21T08:14:51.336Z,98955.44
2022-08-21T08:17:23.202Z,98950.94
2022-08-21T08:19:52.669Z,98949.72
2022-08-21T08:22:24.827Z,98936.88
2022-08-21T08:24:54.914Z,98939.06
2022-08-21T08:27:26.834Z,98942.34
2022-08-21T08:29:56.608Z,98937.84
2022-08-21T08:32:26.194Z,98933.00
2022-08-21T08:34:55.577Z,98930.38
2022-08-21T08:37:25.827Z,98925.25
2022-08-21T08:40:05.500Z,98931.81
2022-08-21T08:42:38.357Z,98925.63
2022-08-21T08:45:09.629Z,98915.94
2022-08-21T08:47:41.335Z,98911.13
2022-08-21T08:50:12.684Z,98915.72
2022-08-21T08:52:46.378Z,98908.97
2022-08-21T08:55:18.137Z,98910.06
2022-08-21T08:57:51.303Z,98911.69
2022-08-21T09:00:22.772Z,98902.81
2022-08-21T09:02:55.616Z,98903.84
2022-08-21T09:05:26.279Z,98906.53
2022-08-21T09:08:01.653Z,98915.72
2022-08-21T09:10:34.731Z,98914.56
2022-08-21T09:13:09.565Z,98910.47
2022-08-21T09:15:43.993Z,98911.56
2022-08-21T09:18:23.216Z,98908.53
2022-08-21T09:21:00.193Z,98906.31
2022-08-21T09:23:33.433Z,98906.31
2022-08-21T09:26:05.943Z,98912.28
2022-08-21T09:28:38.987Z,98902.81
2022-08-21T09:31:10.380Z,98905.44
2022-08-21T09:33:39.808Z,98904.06
2022-08-21T09:36:09.597Z,98903.00
2022-08-21T09:38:40.437Z,98897.38
2022-08-21T09:41:11.955Z,98899.00
2022-08-21T09:43:43.981Z,98893.50
2022-08-21T09:46:14.480Z,98890.19
2022-08-21T09:48:48.887Z,98882.81
2022-08-21T09:51:19.451Z,98882.66
2022-08-21T09:53:51.455Z,98882.25
2022-08-21T09:56:35.174Z,98870.16
2022-08-21T09:59:16.028Z,98880.00
2022-08-21T10:01:47.091Z,98868.41
2022-08-21T10:04:16.869Z,98874.59
2022-08-21T10:06:46.330Z,98866.50
2022-08-21T10:09:21.017Z,98870.81
2022-08-21T10:11:56.643Z,98872.91
2022-08-21T10:14:39.978Z,98861.75
2022-08-21T10:17:13.272Z,98862.69
2022-08-21T10:19:47.395Z,98850.53
2022-08-21T10:22:22.759Z,98859.78
2022-08-21T10:24:56.253Z,98852.00
2022-08-21T10:27:31.921Z,98853.34
2022-08-21T10:30:05.581Z,98848.63
2022-08-21T10:32:44.788Z,98854.03
2022-08-21T10:35:16.676Z,98855.00
2022-08-21T10:37:52.518Z,98853.34
2022-08-21T10:40:25.944Z,98854.09
2022-08-21T10:43:02.862Z,98847.47
2022-08-21T10:45:42.069Z,98842.97
2022-08-21T10:48:16.381Z,98844.38
2022-08-21T10:50:48.368Z,98841.03
2022-08-21T10:53:26.238Z,98838.63
2022-08-21T10:55:58.983Z,98833.53
2022-08-21T10:58:30.709Z,98832.88
2022-08-21T11:01:07.617Z,98825.31
2022-08-21T11:03:39.424Z,98824.03
2022-08-21T11:06:12.681Z,98823.44
2022-08-21T11:08:43.839Z,98820.06
2022-08-21T11:11:19.939Z,98813.25
2022-08-21T11:13:53.467Z,98804.63
2022-08-21T11:16:29.879Z,98804.00
2022-08-21T11:19:02.328Z,98804.31
2022-08-21T11:21:35.887Z,98807.38
2022-08-21T11:24:07.533Z,98809.88
2022-08-21T11:26:39.493Z,98801.22
2022-08-21T11:29:12.294Z,98793.16
2022-08-21T11:31:51.616Z,98792.50
2022-08-21T11:34:27.147Z,98793.09
2022-08-21T11:37:02.819Z,98789.78
2022-08-21T11:39:38.951Z,98790.59
2022-08-21T11:42:26.229Z,98788.31
2022-08-21T11:44:59.966Z,98790.31
2022-08-21T11:47:36.888Z,98788.69
2022-08-21T11:50:29.660Z,98782.19
2022-08-21T11:53:03.623Z,98777.47
2022-08-21T11:55:35.790Z,98775.34
2022-08-21T11:58:10.648Z,98777.94
2022-08-21T12:00:42.531Z,98775.81
2022-08-21T12:03:16.916Z,98782.72
2022-08-21T12:05:55.571Z,98778.28
2022-08-21T12:08:31.462Z,98772.34
2022-08-21T12:11:06.309Z,98767.03
2022-08-21T12:13:40.381Z,98767.00
2022-08-21T12:16:13.854Z,98763.06
2022-08-21T12:18:46.740Z,98765.69
2022-08-21T12:21:27.368Z,98768.53
2022-08-21T12:24:04.789Z,98761.56
2022-08-21T12:26:35.617Z,98758.13
2022-08-21T12:29:11.143Z,98756.81
2022-08-21T12:31:50.649Z,98753.81
2022-08-21T12:34:23.891Z,98747.69
2022-08-21T12:36:57.031Z,98756.41
2022-08-21T12:39:27.716Z,98754.25
2022-08-21T12:42:01.978Z,98747.09
2022-08-21T12:44:35.917Z,98748.56
2022-08-21T12:47:06.796Z,98752.22
2022-08-21T12:49:40.822Z,98751.22
2022-08-21T12:52:15.115Z,98747.56
2022-08-21T12:54:45.648Z,98753.81
2022-08-21T12:57:22.510Z,98740.94
2022-08-21T12:59:55.727Z,98740.66
2022-08-21T13:02:27.315Z,98741.69
2022-08-21T13:04:59.869Z,98743.66
2022-08-21T13:07:32.012Z,98736.16
2022-08-21T13:10:03.873Z,98734.13
2022-08-21T13:12:34.261Z,98732.22
2022-08-21T13:15:08.356Z,98739.16
2022-08-21T13:17:40.528Z,98736.34
2022-08-21T13:20:13.874Z,98735.22
2022-08-21T13:22:47.396Z,98741.63
2022-08-21T13:25:17.672Z,98736.28
2022-08-21T13:27:49.020Z,98733.22
2022-08-21T13:30:23.197Z,98723.53
2022-08-21T13:32:55.172Z,98712.25
2022-08-21T13:35:31.822Z,98712.31
2022-08-21T13:38:03.279Z,98710.25
2022-08-21T13:40:46.208Z,98714.72
2022-08-21T13:43:19.959Z,98715.38
2022-08-21T13:45:52.180Z,98706.19
2022-08-21T13:48:22.087Z,98705.72
2022-08-21T13:50:54.513Z,98702.09
2022-08-21T13:53:25.458Z,98698.94
2022-08-21T13:55:59.956Z,98696.91
2022-08-21T13:58:31.142Z,98695.94
2022-08-21T14:01:01.662Z,98692.09
2022-08-21T14:03:36.278Z,98681.56
2022-08-21T14:06:14.749Z,98677.75
2022-08-21T14:08:44.724Z,98682.22
2022-08-21T14:11:15.470Z,98683.63
2022-08-21T14:13:46.130Z,98684.13
2022-08-21T14:16:18.295Z,98673.03
2022-08-21T14:18:52.804Z,98680.28
2022-08-21T14:21:33.300Z,98671.63
2022-08-21T14:24:03.744Z,98668.41
2022-08-21T14:26:33.395Z,98673.72
2022-08-21T14:29:09.637Z,98669.84
2022-08-21T14:31:43.275Z,98658.63
2022-08-21T14:34:19.315Z,98659.75
2022-08-21T14:36:52.238Z,98661.06
2022-08-21T14:39:21.739Z,98651.41
2022-08-21T14:41:51.719Z,98661.06
2022-08-21T14:44:21.805Z,98658.00
2022-08-21T14:46:55.546Z,98654.34
2022-08-21T14:49:27.391Z,98649.53
2022-08-21T14:52:00.563Z,98647.25
2022-08-21T14:54:31.632Z,98651.41
2022-08-21T14:57:02.406Z,98647.25
2022-08-21T14:59:32.958Z,98639.81
2022-08-21T15:02:02.428Z,98643.34
2022-08-21T15:04:31.759Z,98638.34
2022-08-21T15:07:03.663Z,98647.78
2022-08-21T15:09:33.059Z,98650.56
2022-08-21T15:12:04.036Z,98650.06
2022-08-21T15:14:34.758Z,98650.34
2022-08-21T15:17:04.761Z,98654.63
2022-08-21T15:19:34.190Z,98644.06
2022-08-21T15:22:06.263Z,98655.63
2022-08-21T15:24:44.999Z,98641.84
2022-08-21T15:27:16.834Z,98639.34
2022-08-21T15:29:46.233Z,98635.66
2022-08-21T15:32:20.927Z,98625.88
2022-08-21T15:34:50.369Z,98624.94
2022-08-21T15:37:22.585Z,98628.19
2022-08-21T15:39:54.173Z,98631.69
2022-08-21T15:42:24.264Z,98633.38
2022-08-21T15:44:53.825Z,98623.09
2022-08-21T15:47:26.047Z,98624.63
2022-08-21T15:49:55.446Z,98631.69
2022-08-21T15:52:27.400Z,98616.59
2022-08-21T15:54:56.833Z,98620.13
2022-08-21T15:57:27.157Z,98618.75
2022-08-21T15:59:58.204Z,98619.13
2022-08-21T16:02:29.242Z,98613.69
2022-08-21T16:04:59.272Z,98617.78
2022-08-21T16:07:31.262Z,98610.75
2022-08-21T16:10:00.752Z,98610.88
2022-08-21T16:12:31.872Z,98611.69
2022-08-21T16:15:01.465Z,98607.78
2022-08-21T16:17:32.518Z,98608.72
2022-08-21T16:20:03.545Z,98607.63
2022-08-21T16:22:43.862Z,98598.00
2022-08-21T16:25:15.010Z,98604.50
2022-08-21T16:27:45.231Z,98605.97
2022-08-21T16:30:15.505Z,98600.88
2022-08-21T16:32:45.143Z,98598.94
2022-08-21T16:35:16.094Z,98592.50
2022-08-21T16:37:52.468Z,98594.81
2022-08-21T16:40:23.251Z,98599.00
2022-08-21T16:42:53.501Z,98599.16
2022-08-21T16:45:23.371Z,98592.47
2022-08-21T16:47:52.793Z,98596.84
2022-08-21T16:50:25.851Z,98592.25
2022-08-21T16:52:58.008Z,98594.94
2022-08-21T16:55:27.587Z,98591.16
2022-08-21T16:57:57.005Z,98585.59
2022-08-21T17:00:26.393Z,98588.81
2022-08-21T17:02:57.367Z,98584.50
2022-08-21T17:05:26.912Z,98587.53
2022-08-21T17:07:58.872Z,98592.66
2022-08-21T17:10:28.337Z,98585.75
2022-08-21T17:13:00.903Z,98583.97
2022-08-21T17:15:32.359Z,98581.69
2022-08-21T17:18:02.129Z,98585.03
2022-08-21T17:20:31.499Z,98587.09
2022-08-21T17:23:03.500Z,98582.56
2022-08-21T17:25:33.548Z,98576.91
2022-08-21T17:28:03.176Z,98583.09
2022-08-21T17:30:32.555Z,98580.34
2022-08-21T17:33:02.701Z,98576.00
2022-08-21T17:35:32.135Z,98581.88
2022-08-21T17:38:04.119Z,98585.31
2022-08-21T17:40:36.705Z,98585.88
2022-08-21T17:43:11.603Z,98584.41
2022-08-21T17:45:42.910Z,98586.63
2022-08-21T17:48:12.323Z,98585.50
2022-08-21T17:50:42.337Z,98587.13
2022-08-21T17:53:14.285Z,98589.59
2022-08-21T17:55:44.363Z,98594.34
2022-08-21T17:58:15.652Z,98596.38
2022-08-21T18:00:45.627Z,98593.50
2022-08-21T18:03:17.460Z,98587.44
2022-08-21T18:05:47.261Z,98587.69
2022-08-21T18:08:19.403Z,98589.50
2022-08-21T18:10:50.367Z,98590.72
2022-08-21T18:13:20.845Z,98599.06
2022-08-21T18:15:52.810Z,98598.97
2022-08-21T18:18:22.444Z,98602.13
2022-08-21T18:20:53.104Z,98602.81
2022-08-21T18:23:43.549Z,98603.97
2022-08-21T18:26:16.357Z,98606.91
2022-08-21T18:28:46.501Z,98613.00
2022-08-21T18:31:16.339Z,98618.34
2022-08-21T18:33:57.769Z,98612.28
2022-08-21T18:36:29.332Z,98619.19
2022-08-21T18:39:25.825Z,98619.81
2022-08-21T18:41:51.897Z,98618.66
2022-08-21T18:44:22.531Z,98624.81
2022-08-21T18:46:54.409Z,98629.28
2022-08-21T18:49:24.459Z,98631.56
2022-08-21T18:51:53.941Z,98626.66
2022-08-21T18:54:26.567Z,98635.25
2022-08-21T18:56:56.419Z,98638.09
2022-08-21T18:59:28.391Z,98636.53
2022-08-21T19:01:58.936Z,98644.09
2022-08-21T19:04:43.575Z,98642.59
2022-08-21T19:07:14.274Z,98642.94
2022-08-21T19:10:01.961Z,98651.56
2022-08-21T19:12:36.971Z,98649.75
2022-08-21T19:15:10.145Z,98656.22
2022-08-21T19:17:39.852Z,98653.56
2022-08-21T19:20:19.489Z,98650.13
2022-08-21T19:25:51.746Z,98649.53
2022-08-21T19:28:24.786Z,98656.59
2022-08-21T19:30:57.882Z,98653.66
2022-08-21T19:33:29.953Z,98652.13
2022-08-21T19:35:59.561Z,98658.06
2022-08-21T19:38:29.376Z,98657.56
2022-08-21T19:41:01.655Z,98655.47
2022-08-21T19:43:35.218Z,98661.44
2022-08-21T19:46:05.767Z,98660.88
2022-08-21T19:48:35.232Z,98663.44
2022-08-21T19:51:05.006Z,98666.69
2022-08-21T19:53:35.083Z,98658.09
2022-08-21T19:56:07.184Z,98670.00
2022-08-21T19:58:41.501Z,98668.91
2022-08-21T20:01:16.879Z,98667.34
2022-08-21T20:03:54.477Z,98666.78
2022-08-21T20:06:25.243Z,98665.56
2022-08-21T20:08:55.236Z,98659.09
2022-08-21T20:11:31.526Z,98668.28
2022-08-21T20:14:01.719Z,98668.56
2022-08-21T20:16:31.669Z,98669.13
2022-08-21T20:19:03.262Z,98664.56
2022-08-21T20:21:43.546Z,98666.44
2022-08-21T20:24:14.762Z,98667.56
2022-08-21T20:26:49.526Z,98665.66
2022-08-21T20:29:23.917Z,98662.69
2022-08-21T20:31:54.111Z,98664.03
2022-08-21T20:34:25.513Z,98666.75
2022-08-21T20:36:55.088Z,98666.50
2022-08-21T20:39:24.774Z,98671.66
2022-08-21T20:41:57.646Z,98668.69
2022-08-21T20:44:30.742Z,98668.44
2022-08-21T20:47:01.475Z,98675.72
2022-08-21T20:49:41.195Z,98668.47
2022-08-21T20:52:10.909Z,98677.34
2022-08-21T20:54:45.522Z,98674.66
2022-08-21T20:57:21.911Z,98674.09
2022-08-21T20:59:54.740Z,98683.81
2022-08-21T21:02:29.724Z,98688.91
2022-08-21T21:05:05.292Z,98688.66
2022-08-21T21:07:37.997Z,98684.88
2022-08-21T21:10:10.726Z,98688.09
2022-08-21T21:12:48.824Z,98686.19
2022-08-21T21:15:27.875Z,98684.56
2022-08-21T21:18:03.463Z,98690.78
2022-08-21T21:20:37.527Z,98692.69
2022-08-21T21:23:14.121Z,98694.81
2022-08-21T21:25:53.996Z,98696.97
2022-08-21T21:28:29.197Z,98702.88
2022-08-21T21:30:58.617Z,98700.22
2022-08-21T21:33:33.513Z,98703.44
2022-08-21T21:36:09.081Z,98706.69
2022-08-21T21:38:51.933Z,98705.28
2022-08-21T21:41:25.809Z,98705.56
2022-08-21T21:44:07.388Z,98712.03
2022-08-21T21:46:46.145Z,98706.88
2022-08-21T21:49:32.997Z,98714.38
2022-08-21T21:52:06.121Z,98718.06
2022-08-21T21:55:00.424Z,98724.53
2022-08-21T21:57:40.211Z,98717.28
2022-08-21T22:00:14.280Z,98719.97
2022-08-21T22:02:49.180Z,98723.44
2022-08-21T22:05:24.331Z,98725.81
2022-08-21T22:07:59.831Z,98720.44
2022-08-21T22:10:33.725Z,98725.03
2022-08-21T22:13:26.271Z,98734.41
2022-08-21T22:15:58.944Z,98732.81
2022-08-21T22:18:32.126Z,98737.38
2022-08-21T22:21:05.339Z,98734.91
2022-08-21T22:23:37.161Z,98734.13
2022-08-21T22:26:09.660Z,98740.59
2022-08-21T22:28:40.699Z,98741.09
2022-08-21T22:31:18.104Z,98745.38
2022-08-21T22:34:02.520Z,98741.66
2022-08-21T22:36:33.543Z,98743.25
2022-08-21T22:39:03.990Z,98743.47
2022-08-21T22:41:34.825Z,98736.38
2022-08-21T22:44:05.695Z,98740.34
2022-08-21T22:46:39.189Z,98739.25
2022-08-21T22:49:11.805Z,98739.19
2022-08-21T22:51:43.337Z,98738.66
2022-08-21T22:54:21.754Z,98742.91
2022-08-21T22:56:59.858Z,98738.88
2022-08-21T22:59:30.647Z,98746.16
2022-08-21T23:02:04.523Z,98742.09
2022-08-21T23:04:34.453Z,98738.88
2022-08-21T23:07:06.095Z,98748.75
2022-08-21T23:09:37.371Z,98746.31
2022-08-21T23:14:58.347Z,98746.53
2022-08-21T23:17:37.349Z,98739.50
2022-08-21T23:20:10.335Z,98737.03
2022-08-21T23:22:44.421Z,98734.56
2022-08-21T23:25:29.819Z,98732.91
2022-08-21T23:28:05.075Z,98736.34
2022-08-21T23:30:42.762Z,98735.47
2022-08-21T23:33:27.173Z,98735.94
2022-08-21T23:36:15.843Z,98743.63
2022-08-21T23:38:53.293Z,98737.84
2022-08-21T23:41:34.493Z,98736.31
2022-08-21T23:44:11.178Z,98746.28
2022-08-21T23:46:55.277Z,98746.44
2022-08-21T23:49:35.110Z,98748.25
2022-08-21T23:52:12.597Z,98745.53
2022-08-21T23:54:48.368Z,98744.41
2022-08-21T23:57:31.358Z,98749.56
